Aviation Digital Data Service (ADDS)

Output produced by METARs form (2205 UTC 23 April 2014)
found at http://aviationweather.gov/adds/metars/
 
KAGC 231724Z 2318/2418 30010G18KT P6SM OVC022 
     FM232100 31012G20KT P6SM BKN035 
     FM240000 33004KT P6SM SKC